x

Halibut Bank (46146) Wave Buoy

5:00am - Fri 22nd May 2015 All times are PDT. -7 hours from GMT.

  • Sig Wave height 1.0ft
  • Peak Period 3s
  • Wind
    13mph, 16mph gusts
  • Sea Temp 64°f
  • Air Temp 62°f
  • Sea Pressure 1012.1mb
  • Halibut Bank
  • Halibut Bank

More Historic Weather Station data

Upgrade to MSW Pro to gain access to the past 30 days of data for over 8000 Wavebouys and Weather Stations around the globe.

Join Pro

Comparision Forecast

View Surf forecast
   
Fri 05/22 5:00am 1ft 3s 13 16 mph 1012.1mb 64f 62f
4:00am 0.7ft 2s 4 7 mph 1012.1mb 64f 63f
3:00am 0.7ft 3s 4 7 mph 1012.2mb 64f 65f
2:00am 0.7ft 3s 7 9 mph 1011.5mb 64f 65f
1:00am 0.7ft 3s 11
mph
1010.9mb 65f 64f
12:00am 1ft 3s 11 13 mph 1010.6mb 65f 64f
Thu 05/21 11:00pm 1ft 2s 9 11 mph 1010.3mb 65f 64f
10:00pm 0.3ft 2s 11 13 mph 1009.7mb 65f 65f
9:00pm 0.3ft 4s 9 11 mph 1009mb 65f 66f
8:00pm 0.3ft 2s 9
mph
1008.6mb 67f 66f
7:00pm 0.7ft 3s 7
mph
1008.6mb 66f 66f
6:00pm 0.7ft 2s 2
mph
1008.6mb 67f 66f
5:00pm 0.7ft 3s 4
mph
1008.8mb 67f 66f
4:00pm 0.7ft 3s 7
mph
1009.1mb 67f 65f
3:00pm 1ft 4s 2 4 mph 1009.9mb 66f 65f
2:00pm 1ft 3s 4
mph
1010.6mb 65f 64f
1:00pm 1ft 3s 7 9 mph 1011mb 65f 63f
12:00pm 1ft 3s 9 11 mph 1011.3mb 65f 62f
11:00am 1.6ft 3s 9 11 mph 1011.4mb 65f 61f
10:00am 1.3ft 3s 13 16 mph 1011.6mb 64f 61f
9:00am 1.6ft 4s 13 16 mph 1011.7mb 63f 61f
8:00am 1.6ft 4s 13 16 mph 1011.7mb 62f 61f
7:00am 1.6ft 3s 13 16 mph 1011.6mb 62f 61f
6:00am 1.6ft 3s 13 16 mph 1011.4mb 62f 62f
5:00am 1.3ft 3s 11 13 mph 1011.4mb 62f 62f
4:00am 1.3ft 3s 11 13 mph 1011.4mb 62f 63f
3:00am 0.7ft 3s 9 11 mph 1011.4mb 64f 64f
2:00am 0.3ft 3s 2 4 mph 1011mb 64f 64f
1:00am 0.3ft 3s  -  2 mph 1010.8mb 64f 65f
12:00am 0.3ft 3s 4
mph
1010.8mb 64f 65f
Wed 05/20 11:00pm 0.7ft 3s 2 4 mph 1010.8mb 64f 67f
10:00pm 1ft 3s 9 11 mph 1010.4mb 64f 67f
9:00pm 1ft 3s 13 16 mph 1010.1mb 64f 66f
8:00pm 1.3ft 3s 13 16 mph 1009.7mb 64f 67f
7:00pm 1ft 3s 13 16 mph 1009.9mb 64f 67f
6:00pm 1ft 3s 11 13 mph 1010.4mb 64f 66f
5:00pm 1ft 3s 13
mph
1011.1mb 64f 66f
4:00pm 1.3ft 3s 9 11 mph 1012.1mb 64f 65f
3:00pm 1ft 3s 9 11 mph 1013.1mb 64f 64f
2:00pm 1ft 3s 9 11 mph 1013.9mb 64f 64f
1:00pm 0.7ft 3s 9 11 mph 1014.8mb 64f 62f
12:00pm 0.7ft 3s 9
mph
1015.7mb 64f 61f
11:00am 0.7ft 3s 9 11 mph 1016mb 64f 61f
10:00am 0.7ft 2s 9
mph
1016mb 64f 62f
9:00am 1ft 2s 4 7 mph 1016.2mb 63f 62f
8:00am 1.3ft 3s 7 9 mph 1016.2mb 62f 60f
7:00am 1ft 3s 9 11 mph 1016.3mb 62f 58f
6:00am 1ft 7s 9 11 mph 1016.4mb 62f 58f
5:00am 1ft 3s 4
mph
1016.2mb 62f 59f
4:00am 1.3ft 3s 7 9 mph 1016.3mb 63f 58f
3:00am 1.3ft 4s 13 16 mph 1016.3mb 62f 59f
2:00am 1ft 3s 11 13 mph 1016.1mb 62f 60f
1:00am 1ft 3s 13 16 mph 1015.9mb 63f 62f
12:00am 1.3ft 2s 13 16 mph 1015.5mb 64f 62f
Tue 05/19 11:00pm 0.7ft 2s 16 18 mph 1015.1mb 65f 63f
10:00pm 0.3ft 2s 13 16 mph 1014.9mb 63f 64f
9:00pm 0.7ft 5s 9
mph
1014.6mb 65f 64f
8:00pm 0.3ft 5s 7
mph
1014.4mb 65f 66f
7:00pm 0.7ft 4s 4
mph
1014.3mb 66f 67f
6:00pm 0.7ft 3s  -  2 mph 1014.5mb 65f 68f
5:00pm 0.7ft 4s  -  mph 1015.4mb 65f 67f
4:00pm 0.7ft 6s 4 7 mph 1016.1mb 68f 66f
3:00pm 0.7ft 3s 2 4 mph 1016.8mb 67f 65f
2:00pm 0.7ft 3s 2 4 mph 1017.4mb 66f 64f
1:00pm 0.7ft 3s 2 4 mph 1018mb 65f 63f
12:00pm 0.7ft 3s 2 4 mph 1018.5mb 65f 62f
11:00am 0.7ft 3s 4 7 mph 1018.9mb 64f 62f
10:00am 0.7ft 3s 7
mph
1018.9mb 63f 61f
9:00am 1ft 3s 7 9 mph 1019.1mb 62f 61f
8:00am 1ft 3s 7
mph
1019mb 62f 61f
7:00am 1ft 3s 2
mph
1018.7mb 62f 62f
6:00am 0.7ft 3s 2 4 mph 1018.3mb 62f 61f
5:00am 0.7ft 3s 4 7 mph 1017.9mb 62f 62f
4:00am 0.3ft 3s 7
mph
1017.7mb 62f 62f
3:00am 0.3ft 3s 7 9 mph 1017.5mb 62f 62f
2:00am 0.3ft 3s 9 11 mph 1017.4mb 62f 64f
1:00am 0.7ft 2s 7 9 mph 1017.3mb 62f 63f
12:00am 0.7ft 2s 9
mph
1017.1mb 62f 63f
Mon 05/18 11:00pm 1ft 2s 13 18 mph 1016.7mb 62f 65f
10:00pm 0.7ft 2s 16 18 mph 1016.7mb 62f 64f
9:00pm 0.7ft 6s 13
mph
1016.4mb 63f 65f
8:00pm 0.7ft 4s 9 11 mph 1016.1mb 63f 66f
7:00pm 0.7ft 4s 4
mph
1016mb 63f 65f
6:00pm 0.7ft 2s 9 11 mph 1016.3mb 63f 65f
5:00pm 0.7ft 4s 9 11 mph 1016.3mb 63f 64f
4:00pm 0.7ft 3s 4
mph
1016.7mb 63f 64f
3:00pm 0.7ft 3s 4 7 mph 1017.3mb 63f 63f
2:00pm 0.7ft 3s 9
mph
1018.1mb 62f 62f